sensor_id;sensor_type;location;lat;lon;timestamp;P1;durP1;ratioP1;P2;durP2;ratioP2
22679;SDS011;11507;44.858;10.374;2023-03-29T00:04:01;5.00;;;2.10;;
22679;SDS011;11507;44.858;10.374;2023-03-29T00:06:28;4.95;;;1.90;;
22679;SDS011;11507;44.858;10.374;2023-03-29T00:08:57;4.28;;;2.10;;
22679;SDS011;11507;44.858;10.374;2023-03-29T00:11:23;4.43;;;2.28;;
22679;SDS011;11507;44.858;10.374;2023-03-29T00:13:51;5.00;;;2.58;;
22679;SDS011;11507;44.858;10.374;2023-03-29T00:16:17;5.85;;;2.53;;
22679;SDS011;11507;44.858;10.374;2023-03-29T00:21:09;9.80;;;2.60;;
22679;SDS011;11507;44.858;10.374;2023-03-29T00:23:35;4.78;;;2.50;;
22679;SDS011;11507;44.858;10.374;2023-03-29T00:28:28;9.05;;;2.67;;
22679;SDS011;11507;44.858;10.374;2023-03-29T00:31:02;5.32;;;2.70;;
22679;SDS011;11507;44.858;10.374;2023-03-29T00:33:36;6.32;;;2.97;;
22679;SDS011;11507;44.858;10.374;2023-03-29T00:36:03;4.95;;;2.53;;
22679;SDS011;11507;44.858;10.374;2023-03-29T00:38:30;5.75;;;2.80;;
22679;SDS011;11507;44.858;10.374;2023-03-29T00:43:24;4.78;;;2.85;;
22679;SDS011;11507;44.858;10.374;2023-03-29T00:45:51;4.65;;;2.45;;
22679;SDS011;11507;44.858;10.374;2023-03-29T00:48:22;4.65;;;2.53;;
22679;SDS011;11507;44.858;10.374;2023-03-29T00:50:55;4.30;;;2.47;;
22679;SDS011;11507;44.858;10.374;2023-03-29T00:56:02;5.95;;;2.90;;
22679;SDS011;11507;44.858;10.374;2023-03-29T00:58:34;6.45;;;3.33;;
22679;SDS011;11507;44.858;10.374;2023-03-29T01:01:12;6.38;;;3.30;;
22679;SDS011;11507;44.858;10.374;2023-03-29T01:03:44;7.38;;;3.33;;
22679;SDS011;11507;44.858;10.374;2023-03-29T01:06:15;8.85;;;3.40;;
22679;SDS011;11507;44.858;10.374;2023-03-29T01:08:48;11.27;;;3.35;;
22679;SDS011;11507;44.858;10.374;2023-03-29T01:11:21;5.90;;;3.55;;
22679;SDS011;11507;44.858;10.374;2023-03-29T01:13:55;7.05;;;3.40;;
22679;SDS011;11507;44.858;10.374;2023-03-29T01:16:28;7.95;;;3.60;;
22679;SDS011;11507;44.858;10.374;2023-03-29T01:18:56;6.40;;;3.72;;
22679;SDS011;11507;44.858;10.374;2023-03-29T01:21:24;6.97;;;3.65;;
22679;SDS011;11507;44.858;10.374;2023-03-29T01:31:36;8.00;;;3.63;;
22679;SDS011;11507;44.858;10.374;2023-03-29T01:34:09;6.97;;;3.45;;
22679;SDS011;11507;44.858;10.374;2023-03-29T01:36:48;7.32;;;3.40;;
22679;SDS011;11507;44.858;10.374;2023-03-29T01:39:15;6.68;;;3.30;;
22679;SDS011;11507;44.858;10.374;2023-03-29T01:47:29;7.03;;;3.65;;
22679;SDS011;11507;44.858;10.374;2023-03-29T01:52:41;7.45;;;3.80;;
22679;SDS011;11507;44.858;10.374;2023-03-29T01:55:18;6.90;;;3.78;;
22679;SDS011;11507;44.858;10.374;2023-03-29T01:57:48;6.65;;;3.50;;
22679;SDS011;11507;44.858;10.374;2023-03-29T02:15:26;8.90;;;4.10;;
22679;SDS011;11507;44.858;10.374;2023-03-29T02:17:54;6.25;;;3.80;;
22679;SDS011;11507;44.858;10.374;2023-03-29T02:20:29;6.70;;;3.60;;
22679;SDS011;11507;44.858;10.374;2023-03-29T02:23:10;7.85;;;3.70;;
22679;SDS011;11507;44.858;10.374;2023-03-29T02:25:45;5.88;;;3.75;;
22679;SDS011;11507;44.858;10.374;2023-03-29T02:28:14;7.47;;;3.70;;
22679;SDS011;11507;44.858;10.374;2023-03-29T02:31:01;6.72;;;4.13;;
22679;SDS011;11507;44.858;10.374;2023-03-29T02:33:51;6.35;;;4.07;;
22679;SDS011;11507;44.858;10.374;2023-03-29T02:39:12;7.97;;;4.32;;
22679;SDS011;11507;44.858;10.374;2023-03-29T02:41:40;6.82;;;4.45;;
22679;SDS011;11507;44.858;10.374;2023-03-29T02:44:11;6.80;;;4.32;;
22679;SDS011;11507;44.858;10.374;2023-03-29T02:46:39;7.80;;;4.30;;
22679;SDS011;11507;44.858;10.374;2023-03-29T02:49:11;7.43;;;3.58;;
22679;SDS011;11507;44.858;10.374;2023-03-29T02:51:38;6.60;;;3.83;;
22679;SDS011;11507;44.858;10.374;2023-03-29T02:56:44;8.00;;;4.40;;
22679;SDS011;11507;44.858;10.374;2023-03-29T02:59:15;8.55;;;4.45;;
22679;SDS011;11507;44.858;10.374;2023-03-29T03:01:47;6.57;;;3.90;;
22679;SDS011;11507;44.858;10.374;2023-03-29T03:04:14;6.53;;;4.05;;
22679;SDS011;11507;44.858;10.374;2023-03-29T03:06:42;7.90;;;4.47;;
22679;SDS011;11507;44.858;10.374;2023-03-29T03:09:10;6.45;;;4.07;;
22679;SDS011;11507;44.858;10.374;2023-03-29T03:11:39;6.40;;;3.97;;
22679;SDS011;11507;44.858;10.374;2023-03-29T03:14:05;9.75;;;4.47;;
22679;SDS011;11507;44.858;10.374;2023-03-29T03:16:33;6.93;;;4.18;;
22679;SDS011;11507;44.858;10.374;2023-03-29T03:21:25;8.05;;;4.43;;
22679;SDS011;11507;44.858;10.374;2023-03-29T03:23:54;7.57;;;4.32;;
22679;SDS011;11507;44.858;10.374;2023-03-29T03:26:22;7.95;;;3.92;;
22679;SDS011;11507;44.858;10.374;2023-03-29T03:28:55;10.27;;;4.35;;
22679;SDS011;11507;44.858;10.374;2023-03-29T03:31:46;5.65;;;3.60;;
22679;SDS011;11507;44.858;10.374;2023-03-29T03:34:32;6.50;;;3.75;;
22679;SDS011;11507;44.858;10.374;2023-03-29T03:36:59;6.07;;;3.72;;
22679;SDS011;11507;44.858;10.374;2023-03-29T03:39:31;5.38;;;3.80;;
22679;SDS011;11507;44.858;10.374;2023-03-29T03:41:59;8.30;;;4.35;;
22679;SDS011;11507;44.858;10.374;2023-03-29T03:44:26;6.95;;;4.30;;
22679;SDS011;11507;44.858;10.374;2023-03-29T03:47:10;7.93;;;4.30;;
22679;SDS011;11507;44.858;10.374;2023-03-29T03:49:39;9.40;;;4.82;;
22679;SDS011;11507;44.858;10.374;2023-03-29T03:52:06;8.00;;;4.63;;
22679;SDS011;11507;44.858;10.374;2023-03-29T03:54:33;8.02;;;4.85;;
22679;SDS011;11507;44.858;10.374;2023-03-29T03:57:17;10.70;;;4.85;;
22679;SDS011;11507;44.858;10.374;2023-03-29T03:59:48;8.07;;;4.32;;
22679;SDS011;11507;44.858;10.374;2023-03-29T04:02:23;10.82;;;5.40;;
22679;SDS011;11507;44.858;10.374;2023-03-29T04:07:17;7.90;;;4.78;;
22679;SDS011;11507;44.858;10.374;2023-03-29T04:10:00;9.10;;;4.85;;
22679;SDS011;11507;44.858;10.374;2023-03-29T04:12:46;7.65;;;4.18;;
22679;SDS011;11507;44.858;10.374;2023-03-29T04:15:13;8.02;;;4.60;;
22679;SDS011;11507;44.858;10.374;2023-03-29T04:17:47;10.85;;;5.15;;
22679;SDS011;11507;44.858;10.374;2023-03-29T04:20:15;10.45;;;4.80;;
22679;SDS011;11507;44.858;10.374;2023-03-29T04:22:41;9.40;;;4.60;;
22679;SDS011;11507;44.858;10.374;2023-03-29T04:25:08;8.00;;;4.43;;
22679;SDS011;11507;44.858;10.374;2023-03-29T04:27:48;10.35;;;4.72;;
22679;SDS011;11507;44.858;10.374;2023-03-29T04:30:33;14.63;;;5.40;;
22679;SDS011;11507;44.858;10.374;2023-03-29T04:33:12;11.07;;;5.07;;
22679;SDS011;11507;44.858;10.374;2023-03-29T04:35:42;7.93;;;4.60;;
22679;SDS011;11507;44.858;10.374;2023-03-29T04:38:12;8.82;;;4.85;;
22679;SDS011;11507;44.858;10.374;2023-03-29T04:40:39;7.47;;;4.47;;
22679;SDS011;11507;44.858;10.374;2023-03-29T04:43:24;9.98;;;4.50;;
22679;SDS011;11507;44.858;10.374;2023-03-29T04:45:57;7.75;;;4.28;;
22679;SDS011;11507;44.858;10.374;2023-03-29T04:48:50;6.50;;;3.78;;
22679;SDS011;11507;44.858;10.374;2023-03-29T04:51:23;7.70;;;3.67;;
22679;SDS011;11507;44.858;10.374;2023-03-29T04:53:50;7.70;;;3.55;;
22679;SDS011;11507;44.858;10.374;2023-03-29T04:59:02;12.52;;;4.22;;
22679;SDS011;11507;44.858;10.374;2023-03-29T05:03:56;8.77;;;4.10;;
22679;SDS011;11507;44.858;10.374;2023-03-29T05:06:27;7.88;;;4.20;;
22679;SDS011;11507;44.858;10.374;2023-03-29T05:08:54;9.55;;;4.05;;
22679;SDS011;11507;44.858;10.374;2023-03-29T05:11:40;8.00;;;4.15;;
22679;SDS011;11507;44.858;10.374;2023-03-29T05:16:34;9.18;;;4.43;;
22679;SDS011;11507;44.858;10.374;2023-03-29T05:19:03;9.65;;;4.07;;
22679;SDS011;11507;44.858;10.374;2023-03-29T05:21:33;10.55;;;4.18;;
22679;SDS011;11507;44.858;10.374;2023-03-29T05:24:02;8.13;;;3.90;;
22679;SDS011;11507;44.858;10.374;2023-03-29T05:26:44;8.05;;;4.00;;
22679;SDS011;11507;44.858;10.374;2023-03-29T05:29:12;10.35;;;4.53;;
22679;SDS011;11507;44.858;10.374;2023-03-29T05:31:41;8.70;;;3.85;;
22679;SDS011;11507;44.858;10.374;2023-03-29T05:36:40;6.70;;;3.47;;
22679;SDS011;11507;44.858;10.374;2023-03-29T05:39:07;5.45;;;3.20;;
22679;SDS011;11507;44.858;10.374;2023-03-29T05:41:36;8.00;;;3.78;;
22679;SDS011;11507;44.858;10.374;2023-03-29T05:44:20;5.72;;;3.13;;
22679;SDS011;11507;44.858;10.374;2023-03-29T05:46:52;7.85;;;3.78;;
22679;SDS011;11507;44.858;10.374;2023-03-29T05:51:54;5.95;;;3.00;;
22679;SDS011;11507;44.858;10.374;2023-03-29T05:54:23;8.68;;;3.45;;
22679;SDS011;11507;44.858;10.374;2023-03-29T05:56:49;6.40;;;3.17;;
22679;SDS011;11507;44.858;10.374;2023-03-29T05:59:16;5.72;;;3.10;;
22679;SDS011;11507;44.858;10.374;2023-03-29T06:01:46;6.35;;;3.10;;
22679;SDS011;11507;44.858;10.374;2023-03-29T06:04:16;6.95;;;3.58;;
22679;SDS011;11507;44.858;10.374;2023-03-29T06:06:53;7.68;;;3.15;;
22679;SDS011;11507;44.858;10.374;2023-03-29T06:11:53;8.18;;;3.10;;
22679;SDS011;11507;44.858;10.374;2023-03-29T06:14:26;8.55;;;3.25;;
22679;SDS011;11507;44.858;10.374;2023-03-29T06:17:13;7.93;;;3.15;;
22679;SDS011;11507;44.858;10.374;2023-03-29T06:19:39;10.18;;;3.38;;
22679;SDS011;11507;44.858;10.374;2023-03-29T06:24:33;6.95;;;3.38;;
22679;SDS011;11507;44.858;10.374;2023-03-29T06:27:06;7.60;;;3.80;;
22679;SDS011;11507;44.858;10.374;2023-03-29T06:31:59;7.75;;;3.72;;
22679;SDS011;11507;44.858;10.374;2023-03-29T06:34:42;8.30;;;3.67;;
22679;SDS011;11507;44.858;10.374;2023-03-29T06:37:38;7.57;;;4.10;;
22679;SDS011;11507;44.858;10.374;2023-03-29T06:40:22;10.45;;;3.90;;
22679;SDS011;11507;44.858;10.374;2023-03-29T06:42:49;9.30;;;3.47;;
22679;SDS011;11507;44.858;10.374;2023-03-29T06:48:30;6.53;;;3.50;;
22679;SDS011;11507;44.858;10.374;2023-03-29T06:50:57;10.00;;;3.97;;
22679;SDS011;11507;44.858;10.374;2023-03-29T06:53:26;10.13;;;4.13;;
22679;SDS011;11507;44.858;10.374;2023-03-29T06:55:58;5.55;;;3.15;;
22679;SDS011;11507;44.858;10.374;2023-03-29T06:58:45;8.77;;;3.70;;
22679;SDS011;11507;44.858;10.374;2023-03-29T07:01:28;7.70;;;3.55;;
22679;SDS011;11507;44.858;10.374;2023-03-29T07:04:02;9.80;;;3.58;;
22679;SDS011;11507;44.858;10.374;2023-03-29T07:06:39;11.13;;;3.08;;
22679;SDS011;11507;44.858;10.374;2023-03-29T07:12:00;7.50;;;3.45;;
22679;SDS011;11507;44.858;10.374;2023-03-29T07:14:26;10.18;;;3.60;;
22679;SDS011;11507;44.858;10.374;2023-03-29T07:16:57;8.30;;;3.33;;
22679;SDS011;11507;44.858;10.374;2023-03-29T07:19:30;14.73;;;4.05;;
22679;SDS011;11507;44.858;10.374;2023-03-29T07:22:22;5.32;;;3.33;;
22679;SDS011;11507;44.858;10.374;2023-03-29T07:24:53;7.05;;;3.80;;
22679;SDS011;11507;44.858;10.374;2023-03-29T07:27:19;7.00;;;3.67;;
22679;SDS011;11507;44.858;10.374;2023-03-29T07:29:47;8.05;;;3.60;;
22679;SDS011;11507;44.858;10.374;2023-03-29T07:32:16;7.75;;;3.63;;
22679;SDS011;11507;44.858;10.374;2023-03-29T07:37:28;6.00;;;3.28;;
22679;SDS011;11507;44.858;10.374;2023-03-29T07:39:56;7.43;;;3.03;;
22679;SDS011;11507;44.858;10.374;2023-03-29T07:42:42;7.18;;;3.22;;
22679;SDS011;11507;44.858;10.374;2023-03-29T07:45:17;7.45;;;3.60;;
22679;SDS011;11507;44.858;10.374;2023-03-29T07:47:58;7.13;;;3.78;;
22679;SDS011;11507;44.858;10.374;2023-03-29T07:50:30;5.25;;;3.15;;
22679;SDS011;11507;44.858;10.374;2023-03-29T07:52:59;7.07;;;4.07;;
22679;SDS011;11507;44.858;10.374;2023-03-29T07:55:28;6.30;;;3.90;;
22679;SDS011;11507;44.858;10.374;2023-03-29T07:58:02;7.35;;;3.70;;
22679;SDS011;11507;44.858;10.374;2023-03-29T08:00:31;8.93;;;4.10;;
22679;SDS011;11507;44.858;10.374;2023-03-29T08:03:20;7.72;;;4.20;;
22679;SDS011;11507;44.858;10.374;2023-03-29T08:05:47;9.15;;;4.35;;
22679;SDS011;11507;44.858;10.374;2023-03-29T08:08:14;10.13;;;4.30;;
22679;SDS011;11507;44.858;10.374;2023-03-29T08:10:56;7.57;;;4.30;;
22679;SDS011;11507;44.858;10.374;2023-03-29T08:13:41;8.93;;;4.80;;
22679;SDS011;11507;44.858;10.374;2023-03-29T08:16:13;8.45;;;4.78;;
22679;SDS011;11507;44.858;10.374;2023-03-29T08:18:50;9.68;;;4.50;;
22679;SDS011;11507;44.858;10.374;2023-03-29T08:21:24;9.75;;;4.97;;
22679;SDS011;11507;44.858;10.374;2023-03-29T08:23:55;12.23;;;5.00;;
22679;SDS011;11507;44.858;10.374;2023-03-29T08:26:31;10.63;;;5.28;;
22679;SDS011;11507;44.858;10.374;2023-03-29T08:28:58;7.78;;;4.65;;
22679;SDS011;11507;44.858;10.374;2023-03-29T08:31:27;11.13;;;5.45;;
22679;SDS011;11507;44.858;10.374;2023-03-29T08:33:53;9.13;;;5.85;;
22679;SDS011;11507;44.858;10.374;2023-03-29T08:36:31;9.40;;;5.60;;
22679;SDS011;11507;44.858;10.374;2023-03-29T08:39:03;10.27;;;5.60;;
22679;SDS011;11507;44.858;10.374;2023-03-29T08:41:40;8.27;;;5.88;;
22679;SDS011;11507;44.858;10.374;2023-03-29T08:50:09;12.65;;;6.80;;
22679;SDS011;11507;44.858;10.374;2023-03-29T08:53:03;10.45;;;6.88;;
22679;SDS011;11507;44.858;10.374;2023-03-29T08:55:49;10.50;;;7.60;;
22679;SDS011;11507;44.858;10.374;2023-03-29T08:58:38;11.73;;;8.10;;
22679;SDS011;11507;44.858;10.374;2023-03-29T09:06:53;23.00;;;14.10;;
22679;SDS011;11507;44.858;10.374;2023-03-29T09:09:28;14.57;;;9.93;;
22679;SDS011;11507;44.858;10.374;2023-03-29T09:17:38;11.50;;;7.03;;
22679;SDS011;11507;44.858;10.374;2023-03-29T09:31:38;8.80;;;5.93;;
22679;SDS011;11507;44.858;10.374;2023-03-29T09:34:12;9.15;;;5.22;;
22679;SDS011;11507;44.858;10.374;2023-03-29T09:37:02;8.70;;;5.57;;
22679;SDS011;11507;44.858;10.374;2023-03-29T09:39:35;9.15;;;5.70;;
22679;SDS011;11507;44.858;10.374;2023-03-29T09:42:09;9.38;;;5.78;;
22679;SDS011;11507;44.858;10.374;2023-03-29T09:50:54;8.23;;;5.75;;
22679;SDS011;11507;44.858;10.374;2023-03-29T09:53:19;6.80;;;4.80;;
22679;SDS011;11507;44.858;10.374;2023-03-29T09:58:44;10.55;;;5.03;;
22679;SDS011;11507;44.858;10.374;2023-03-29T10:01:13;8.80;;;5.32;;
22679;SDS011;11507;44.858;10.374;2023-03-29T10:03:46;8.10;;;5.60;;
22679;SDS011;11507;44.858;10.374;2023-03-29T10:06:17;7.60;;;5.13;;
22679;SDS011;11507;44.858;10.374;2023-03-29T10:08:55;9.45;;;4.75;;
22679;SDS011;11507;44.858;10.374;2023-03-29T10:11:29;8.20;;;5.40;;
22679;SDS011;11507;44.858;10.374;2023-03-29T10:14:01;7.80;;;5.57;;
22679;SDS011;11507;44.858;10.374;2023-03-29T10:16:53;6.93;;;4.97;;
22679;SDS011;11507;44.858;10.374;2023-03-29T10:19:22;7.03;;;4.32;;
22679;SDS011;11507;44.858;10.374;2023-03-29T10:21:52;8.65;;;4.70;;
22679;SDS011;11507;44.858;10.374;2023-03-29T10:24:25;7.13;;;3.85;;
22679;SDS011;11507;44.858;10.374;2023-03-29T10:26:59;9.20;;;3.10;;
22679;SDS011;11507;44.858;10.374;2023-03-29T10:29:39;8.10;;;4.30;;
22679;SDS011;11507;44.858;10.374;2023-03-29T10:32:22;6.28;;;3.17;;
22679;SDS011;11507;44.858;10.374;2023-03-29T10:35:07;5.32;;;3.50;;
22679;SDS011;11507;44.858;10.374;2023-03-29T10:37:40;7.47;;;3.88;;
22679;SDS011;11507;44.858;10.374;2023-03-29T10:40:27;7.70;;;4.03;;
22679;SDS011;11507;44.858;10.374;2023-03-29T10:43:45;7.35;;;4.45;;
22679;SDS011;11507;44.858;10.374;2023-03-29T10:45:55;7.28;;;4.20;;
22679;SDS011;11507;44.858;10.374;2023-03-29T10:48:30;6.75;;;4.55;;
22679;SDS011;11507;44.858;10.374;2023-03-29T10:51:03;8.55;;;4.18;;
22679;SDS011;11507;44.858;10.374;2023-03-29T10:53:35;8.15;;;4.75;;
22679;SDS011;11507;44.858;10.374;2023-03-29T10:56:08;8.45;;;5.20;;
22679;SDS011;11507;44.858;10.374;2023-03-29T11:04:49;8.18;;;5.20;;
22679;SDS011;11507;44.858;10.374;2023-03-29T11:07:48;9.55;;;5.60;;
22679;SDS011;11507;44.858;10.374;2023-03-29T11:23:52;8.45;;;5.45;;
22679;SDS011;11507;44.858;10.374;2023-03-29T11:26:46;9.63;;;5.15;;
22679;SDS011;11507;44.858;10.374;2023-03-29T11:38:00;8.13;;;4.60;;
22679;SDS011;11507;44.858;10.374;2023-03-29T11:40:52;8.05;;;5.20;;
22679;SDS011;11507;44.858;10.374;2023-03-29T11:43:45;7.82;;;4.75;;
22679;SDS011;11507;44.858;10.374;2023-03-29T11:54:16;8.57;;;5.07;;
22679;SDS011;11507;44.858;10.374;2023-03-29T11:57:13;6.30;;;4.65;;
22679;SDS011;11507;44.858;10.374;2023-03-29T11:59:48;7.75;;;5.30;;
22679;SDS011;11507;44.858;10.374;2023-03-29T12:02:24;7.50;;;5.20;;
22679;SDS011;11507;44.858;10.374;2023-03-29T12:04:56;10.73;;;5.77;;
22679;SDS011;11507;44.858;10.374;2023-03-29T12:07:47;7.57;;;5.20;;
22679;SDS011;11507;44.858;10.374;2023-03-29T12:10:38;7.88;;;5.45;;
22679;SDS011;11507;44.858;10.374;2023-03-29T12:13:22;9.75;;;5.57;;
22679;SDS011;11507;44.858;10.374;2023-03-29T12:18:38;9.70;;;5.60;;
22679;SDS011;11507;44.858;10.374;2023-03-29T12:21:10;7.90;;;5.22;;
22679;SDS011;11507;44.858;10.374;2023-03-29T12:23:47;9.05;;;5.22;;
22679;SDS011;11507;44.858;10.374;2023-03-29T12:32:02;8.13;;;5.13;;
22679;SDS011;11507;44.858;10.374;2023-03-29T12:38:12;8.75;;;4.70;;
22679;SDS011;11507;44.858;10.374;2023-03-29T12:41:14;6.97;;;5.00;;
22679;SDS011;11507;44.858;10.374;2023-03-29T12:44:15;7.45;;;4.88;;
22679;SDS011;11507;44.858;10.374;2023-03-29T12:46:52;7.22;;;4.97;;
22679;SDS011;11507;44.858;10.374;2023-03-29T12:49:27;7.68;;;5.07;;
22679;SDS011;11507;44.858;10.374;2023-03-29T12:51:57;8.73;;;4.93;;
22679;SDS011;11507;44.858;10.374;2023-03-29T12:54:32;7.68;;;5.20;;
22679;SDS011;11507;44.858;10.374;2023-03-29T12:57:18;7.15;;;4.85;;
22679;SDS011;11507;44.858;10.374;2023-03-29T13:00:09;12.27;;;5.40;;
22679;SDS011;11507;44.858;10.374;2023-03-29T13:02:58;9.50;;;5.10;;
22679;SDS011;11507;44.858;10.374;2023-03-29T13:05:29;9.70;;;5.15;;
22679;SDS011;11507;44.858;10.374;2023-03-29T13:07:57;7.90;;;4.97;;
22679;SDS011;11507;44.858;10.374;2023-03-29T13:10:36;9.65;;;5.45;;
22679;SDS011;11507;44.858;10.374;2023-03-29T13:13:25;9.32;;;5.30;;
22679;SDS011;11507;44.858;10.374;2023-03-29T13:15:55;7.00;;;5.20;;
22679;SDS011;11507;44.858;10.374;2023-03-29T13:18:36;9.85;;;5.00;;
22679;SDS011;11507;44.858;10.374;2023-03-29T13:21:38;11.07;;;4.82;;
22679;SDS011;11507;44.858;10.374;2023-03-29T13:39:33;7.95;;;5.13;;
22679;SDS011;11507;44.858;10.374;2023-03-29T13:42:06;8.68;;;5.30;;
22679;SDS011;11507;44.858;10.374;2023-03-29T13:44:44;10.80;;;5.32;;
22679;SDS011;11507;44.858;10.374;2023-03-29T13:47:14;7.57;;;4.85;;
22679;SDS011;11507;44.858;10.374;2023-03-29T13:50:10;7.30;;;5.00;;
22679;SDS011;11507;44.858;10.374;2023-03-29T13:53:03;8.30;;;4.97;;
22679;SDS011;11507;44.858;10.374;2023-03-29T13:55:40;10.38;;;5.25;;
22679;SDS011;11507;44.858;10.374;2023-03-29T13:58:12;7.83;;;4.97;;
22679;SDS011;11507;44.858;10.374;2023-03-29T14:01:01;8.98;;;5.30;;
22679;SDS011;11507;44.858;10.374;2023-03-29T14:03:50;9.63;;;5.00;;
22679;SDS011;11507;44.858;10.374;2023-03-29T14:06:20;7.05;;;5.25;;
22679;SDS011;11507;44.858;10.374;2023-03-29T14:08:53;9.00;;;5.32;;
22679;SDS011;11507;44.858;10.374;2023-03-29T14:11:21;7.90;;;4.47;;
22679;SDS011;11507;44.858;10.374;2023-03-29T14:13:52;10.68;;;4.78;;
22679;SDS011;11507;44.858;10.374;2023-03-29T14:16:21;9.65;;;5.20;;
22679;SDS011;11507;44.858;10.374;2023-03-29T14:18:56;7.28;;;4.82;;
22679;SDS011;11507;44.858;10.374;2023-03-29T14:21:24;10.68;;;5.32;;
22679;SDS011;11507;44.858;10.374;2023-03-29T14:23:54;8.80;;;5.00;;
22679;SDS011;11507;44.858;10.374;2023-03-29T14:26:27;8.32;;;4.90;;
22679;SDS011;11507;44.858;10.374;2023-03-29T14:28:55;9.73;;;5.50;;
22679;SDS011;11507;44.858;10.374;2023-03-29T14:31:24;8.65;;;4.97;;
22679;SDS011;11507;44.858;10.374;2023-03-29T14:34:01;10.00;;;5.53;;
22679;SDS011;11507;44.858;10.374;2023-03-29T14:36:30;8.23;;;4.97;;
22679;SDS011;11507;44.858;10.374;2023-03-29T14:39:00;8.63;;;4.93;;
22679;SDS011;11507;44.858;10.374;2023-03-29T14:41:29;7.95;;;5.25;;
22679;SDS011;11507;44.858;10.374;2023-03-29T14:43:57;8.18;;;4.97;;
22679;SDS011;11507;44.858;10.374;2023-03-29T14:46:23;10.65;;;5.40;;
22679;SDS011;11507;44.858;10.374;2023-03-29T14:48:51;11.43;;;5.90;;
22679;SDS011;11507;44.858;10.374;2023-03-29T14:51:18;9.30;;;5.55;;
22679;SDS011;11507;44.858;10.374;2023-03-29T14:53:46;10.88;;;5.60;;
22679;SDS011;11507;44.858;10.374;2023-03-29T14:58:51;7.75;;;5.43;;
22679;SDS011;11507;44.858;10.374;2023-03-29T15:01:19;9.63;;;6.13;;
22679;SDS011;11507;44.858;10.374;2023-03-29T15:11:51;9.25;;;6.20;;
22679;SDS011;11507;44.858;10.374;2023-03-29T15:14:19;9.20;;;5.90;;
22679;SDS011;11507;44.858;10.374;2023-03-29T15:16:51;8.30;;;5.80;;
22679;SDS011;11507;44.858;10.374;2023-03-29T15:19:29;9.07;;;5.88;;
22679;SDS011;11507;44.858;10.374;2023-03-29T15:21:57;9.68;;;6.00;;
22679;SDS011;11507;44.858;10.374;2023-03-29T15:24:41;8.00;;;6.10;;
22679;SDS011;11507;44.858;10.374;2023-03-29T15:27:15;9.88;;;6.28;;
22679;SDS011;11507;44.858;10.374;2023-03-29T15:29:43;9.88;;;6.07;;
22679;SDS011;11507;44.858;10.374;2023-03-29T15:32:20;9.73;;;6.68;;
22679;SDS011;11507;44.858;10.374;2023-03-29T15:35:02;10.90;;;5.80;;
22679;SDS011;11507;44.858;10.374;2023-03-29T15:37:32;7.88;;;5.80;;
22679;SDS011;11507;44.858;10.374;2023-03-29T15:39:58;11.52;;;5.82;;
22679;SDS011;11507;44.858;10.374;2023-03-29T15:42:24;9.52;;;6.45;;
22679;SDS011;11507;44.858;10.374;2023-03-29T15:44:53;12.35;;;6.35;;
22679;SDS011;11507;44.858;10.374;2023-03-29T15:47:26;10.40;;;6.80;;
22679;SDS011;11507;44.858;10.374;2023-03-29T15:49:52;9.05;;;5.93;;
22679;SDS011;11507;44.858;10.374;2023-03-29T15:52:20;11.05;;;6.43;;
22679;SDS011;11507;44.858;10.374;2023-03-29T15:54:47;9.45;;;6.63;;
22679;SDS011;11507;44.858;10.374;2023-03-29T15:57:14;9.55;;;6.63;;
22679;SDS011;11507;44.858;10.374;2023-03-29T15:59:42;10.13;;;6.45;;
22679;SDS011;11507;44.858;10.374;2023-03-29T16:02:12;11.27;;;6.70;;
22679;SDS011;11507;44.858;10.374;2023-03-29T16:04:44;12.30;;;6.63;;
22679;SDS011;11507;44.858;10.374;2023-03-29T16:07:16;13.15;;;6.80;;
22679;SDS011;11507;44.858;10.374;2023-03-29T16:09:44;10.00;;;6.90;;
22679;SDS011;11507;44.858;10.374;2023-03-29T16:12:14;12.55;;;6.60;;
22679;SDS011;11507;44.858;10.374;2023-03-29T16:14:41;9.80;;;6.97;;
22679;SDS011;11507;44.858;10.374;2023-03-29T16:17:08;6.95;;;2.88;;
22679;SDS011;11507;44.858;10.374;2023-03-29T16:19:34;12.20;;;7.20;;
22679;SDS011;11507;44.858;10.374;2023-03-29T16:22:00;3.63;;;1.23;;
22679;SDS011;11507;44.858;10.374;2023-03-29T16:24:32;4.30;;;0.93;;
22679;SDS011;11507;44.858;10.374;2023-03-29T16:26:59;3.33;;;0.98;;
22679;SDS011;11507;44.858;10.374;2023-03-29T16:29:28;3.30;;;0.90;;
22679;SDS011;11507;44.858;10.374;2023-03-29T16:31:54;5.28;;;0.93;;
22679;SDS011;11507;44.858;10.374;2023-03-29T16:34:23;4.90;;;1.05;;
22679;SDS011;11507;44.858;10.374;2023-03-29T16:36:51;3.75;;;1.10;;
22679;SDS011;11507;44.858;10.374;2023-03-29T16:39:18;6.70;;;0.90;;
22679;SDS011;11507;44.858;10.374;2023-03-29T16:41:44;8.25;;;1.08;;
22679;SDS011;11507;44.858;10.374;2023-03-29T16:44:17;3.83;;;0.95;;
22679;SDS011;11507;44.858;10.374;2023-03-29T16:49:18;6.07;;;1.00;;
22679;SDS011;11507;44.858;10.374;2023-03-29T16:51:45;3.10;;;0.70;;
22679;SDS011;11507;44.858;10.374;2023-03-29T16:54:12;2.75;;;0.50;;
22679;SDS011;11507;44.858;10.374;2023-03-29T16:56:40;3.75;;;0.90;;
22679;SDS011;11507;44.858;10.374;2023-03-29T16:59:19;3.33;;;0.75;;
22679;SDS011;11507;44.858;10.374;2023-03-29T17:01:46;4.63;;;0.80;;
22679;SDS011;11507;44.858;10.374;2023-03-29T17:04:15;1.58;;;0.60;;
22679;SDS011;11507;44.858;10.374;2023-03-29T17:06:42;4.65;;;0.80;;
22679;SDS011;11507;44.858;10.374;2023-03-29T17:09:08;3.97;;;0.70;;
22679;SDS011;11507;44.858;10.374;2023-03-29T17:11:34;3.03;;;0.70;;
22679;SDS011;11507;44.858;10.374;2023-03-29T17:14:00;3.75;;;0.70;;
22679;SDS011;11507;44.858;10.374;2023-03-29T17:16:30;2.67;;;0.68;;
22679;SDS011;11507;44.858;10.374;2023-03-29T17:18:57;5.20;;;0.50;;
22679;SDS011;11507;44.858;10.374;2023-03-29T17:21:25;2.75;;;0.77;;
22679;SDS011;11507;44.858;10.374;2023-03-29T17:23:54;3.28;;;0.65;;
22679;SDS011;11507;44.858;10.374;2023-03-29T17:26:20;6.25;;;0.77;;
22679;SDS011;11507;44.858;10.374;2023-03-29T17:28:47;3.35;;;0.68;;
22679;SDS011;11507;44.858;10.374;2023-03-29T17:31:14;2.30;;;0.60;;
22679;SDS011;11507;44.858;10.374;2023-03-29T17:33:41;2.83;;;0.70;;
22679;SDS011;11507;44.858;10.374;2023-03-29T17:36:10;4.07;;;0.73;;
22679;SDS011;11507;44.858;10.374;2023-03-29T17:38:39;2.83;;;0.70;;
22679;SDS011;11507;44.858;10.374;2023-03-29T17:41:06;2.38;;;0.60;;
22679;SDS011;11507;44.858;10.374;2023-03-29T17:46:04;3.22;;;0.60;;
22679;SDS011;11507;44.858;10.374;2023-03-29T17:48:33;2.38;;;0.60;;
22679;SDS011;11507;44.858;10.374;2023-03-29T17:51:00;2.13;;;0.60;;
22679;SDS011;11507;44.858;10.374;2023-03-29T18:08:00;4.78;;;1.00;;
22679;SDS011;11507;44.858;10.374;2023-03-29T18:10:28;3.08;;;0.80;;
22679;SDS011;11507;44.858;10.374;2023-03-29T18:12:54;2.42;;;0.80;;
22679;SDS011;11507;44.858;10.374;2023-03-29T18:15:20;2.15;;;0.77;;
22679;SDS011;11507;44.858;10.374;2023-03-29T18:20:14;3.38;;;0.80;;
22679;SDS011;11507;44.858;10.374;2023-03-29T18:22:42;2.10;;;0.70;;
22679;SDS011;11507;44.858;10.374;2023-03-29T18:25:08;2.83;;;0.80;;
22679;SDS011;11507;44.858;10.374;2023-03-29T18:27:35;1.95;;;0.50;;
22679;SDS011;11507;44.858;10.374;2023-03-29T18:30:03;3.35;;;0.65;;
22679;SDS011;11507;44.858;10.374;2023-03-29T18:32:31;3.50;;;0.70;;
22679;SDS011;11507;44.858;10.374;2023-03-29T18:34:57;3.10;;;0.88;;
22679;SDS011;11507;44.858;10.374;2023-03-29T18:37:23;3.25;;;0.63;;
22679;SDS011;11507;44.858;10.374;2023-03-29T18:39:49;3.88;;;0.65;;
22679;SDS011;11507;44.858;10.374;2023-03-29T18:42:15;2.90;;;0.73;;
22679;SDS011;11507;44.858;10.374;2023-03-29T18:47:08;1.50;;;0.70;;